sensor_id;sensor_type;location;lat;lon;timestamp;pressure;altitude;pressure_sealevel;temperature;humidity
22605;BME280;11469;49.024;8.246;2022-10-30T00:00:47;100759.25;;;13.06;100.00
22605;BME280;11469;49.024;8.246;2022-10-30T00:03:14;100767.97;;;13.01;100.00
22605;BME280;11469;49.024;8.246;2022-10-30T00:05:45;100769.06;;;12.96;100.00
22605;BME280;11469;49.024;8.246;2022-10-30T00:08:12;100765.44;;;12.96;100.00
22605;BME280;11469;49.024;8.246;2022-10-30T00:10:37;100767.44;;;12.95;100.00
22605;BME280;11469;49.024;8.246;2022-10-30T00:13:03;100761.81;;;12.95;100.00
22605;BME280;11469;49.024;8.246;2022-10-30T00:15:29;100755.75;;;12.93;100.00
22605;BME280;11469;49.024;8.246;2022-10-30T00:17:54;100753.31;;;12.92;100.00
22605;BME280;11469;49.024;8.246;2022-10-30T00:20:20;100759.00;;;12.95;100.00
22605;BME280;11469;49.024;8.246;2022-10-30T00:22:45;100760.25;;;12.98;100.00
22605;BME280;11469;49.024;8.246;2022-10-30T00:25:10;100769.97;;;13.01;100.00
22605;BME280;11469;49.024;8.246;2022-10-30T00:27:36;100759.91;;;13.00;100.00
22605;BME280;11469;49.024;8.246;2022-10-30T00:30:01;100757.91;;;13.00;100.00
22605;BME280;11469;49.024;8.246;2022-10-30T00:32:27;100758.72;;;13.01;100.00
22605;BME280;11469;49.024;8.246;2022-10-30T00:34:52;100762.34;;;13.01;100.00
22605;BME280;11469;49.024;8.246;2022-10-30T00:37:18;100751.59;;;13.07;100.00
22605;BME280;11469;49.024;8.246;2022-10-30T00:39:43;100756.88;;;13.08;100.00
22605;BME280;11469;49.024;8.246;2022-10-30T00:42:13;100746.78;;;13.07;100.00
22605;BME280;11469;49.024;8.246;2022-10-30T00:47:38;100746.50;;;13.12;100.00
22605;BME280;11469;49.024;8.246;2022-10-30T00:50:24;100740.63;;;13.17;100.00
22605;BME280;11469;49.024;8.246;2022-10-30T00:52:59;100732.97;;;13.18;100.00
22605;BME280;11469;49.024;8.246;2022-10-30T00:55:26;100741.88;;;13.20;100.00
22605;BME280;11469;49.024;8.246;2022-10-30T00:57:53;100732.69;;;13.23;100.00
22605;BME280;11469;49.024;8.246;2022-10-30T01:00:21;100737.09;;;13.24;100.00
22605;BME280;11469;49.024;8.246;2022-10-30T01:02:47;100735.16;;;13.28;100.00
22605;BME280;11469;49.024;8.246;2022-10-30T01:05:17;100733.25;;;13.32;100.00
22605;BME280;11469;49.024;8.246;2022-10-30T01:07:44;100733.97;;;13.29;100.00
22605;BME280;11469;49.024;8.246;2022-10-30T01:10:11;100734.06;;;13.33;100.00
22605;BME280;11469;49.024;8.246;2022-10-30T01:12:38;100746.34;;;13.24;100.00
22605;BME280;11469;49.024;8.246;2022-10-30T01:15:04;100739.06;;;13.20;100.00
22605;BME280;11469;49.024;8.246;2022-10-30T01:17:37;100737.91;;;13.24;100.00
22605;BME280;11469;49.024;8.246;2022-10-30T01:23:19;100738.88;;;13.13;100.00
22605;BME280;11469;49.024;8.246;2022-10-30T01:31:15;100731.53;;;13.08;100.00
22605;BME280;11469;49.024;8.246;2022-10-30T01:36:59;100725.09;;;13.08;100.00
22605;BME280;11469;49.024;8.246;2022-10-30T01:39:27;100729.91;;;13.07;100.00
22605;BME280;11469;49.024;8.246;2022-10-30T01:41:55;100732.72;;;13.07;100.00
22605;BME280;11469;49.024;8.246;2022-10-30T01:44:28;100726.28;;;13.07;100.00
22605;BME280;11469;49.024;8.246;2022-10-30T01:47:29;100726.28;;;13.07;100.00
22605;BME280;11469;49.024;8.246;2022-10-30T01:53:15;100720.13;;;13.01;100.00
22605;BME280;11469;49.024;8.246;2022-10-30T01:56:17;100726.50;;;12.98;100.00
22605;BME280;11469;49.024;8.246;2022-10-30T01:59:30;100717.53;;;12.92;100.00
22605;BME280;11469;49.024;8.246;2022-10-30T02:01:37;100722.00;;;12.93;100.00
22605;BME280;11469;49.024;8.246;2022-10-30T02:04:04;100727.91;;;12.88;100.00
22605;BME280;11469;49.024;8.246;2022-10-30T02:06:30;100722.66;;;12.87;100.00
22605;BME280;11469;49.024;8.246;2022-10-30T02:08:56;100722.19;;;12.85;100.00
22605;BME280;11469;49.024;8.246;2022-10-30T02:11:23;100715.31;;;12.82;100.00
22605;BME280;11469;49.024;8.246;2022-10-30T02:13:53;100715.31;;;12.82;100.00
22605;BME280;11469;49.024;8.246;2022-10-30T02:16:20;100722.03;;;12.78;100.00
22605;BME280;11469;49.024;8.246;2022-10-30T02:18:46;100705.53;;;12.76;100.00
22605;BME280;11469;49.024;8.246;2022-10-30T02:21:12;100712.44;;;12.79;100.00
22605;BME280;11469;49.024;8.246;2022-10-30T02:23:37;100720.00;;;12.75;100.00
22605;BME280;11469;49.024;8.246;2022-10-30T02:26:03;100710.66;;;12.71;100.00
22605;BME280;11469;49.024;8.246;2022-10-30T02:28:28;100717.41;;;12.66;100.00
22605;BME280;11469;49.024;8.246;2022-10-30T02:30:54;100710.50;;;12.63;100.00
22605;BME280;11469;49.024;8.246;2022-10-30T02:33:19;100720.50;;;12.61;100.00
22605;BME280;11469;49.024;8.246;2022-10-30T02:35:45;100710.28;;;12.53;100.00
22605;BME280;11469;49.024;8.246;2022-10-30T02:38:10;100724.97;;;12.46;100.00
22605;BME280;11469;49.024;8.246;2022-10-30T02:40:35;100718.47;;;12.42;100.00
22605;BME280;11469;49.024;8.246;2022-10-30T02:43:01;100719.56;;;12.38;100.00
22605;BME280;11469;49.024;8.246;2022-10-30T02:45:26;100718.28;;;12.35;100.00
22605;BME280;11469;49.024;8.246;2022-10-30T02:47:52;100718.50;;;12.26;100.00
22605;BME280;11469;49.024;8.246;2022-10-30T02:50:17;100721.16;;;12.19;100.00
22605;BME280;11469;49.024;8.246;2022-10-30T02:52:43;100720.53;;;12.10;100.00
22605;BME280;11469;49.024;8.246;2022-10-30T02:55:08;100721.44;;;12.14;100.00
22605;BME280;11469;49.024;8.246;2022-10-30T02:57:34;100722.97;;;12.12;100.00
22605;BME280;11469;49.024;8.246;2022-10-30T02:59:59;100712.91;;;12.11;100.00
22605;BME280;11469;49.024;8.246;2022-10-30T03:02:25;100711.28;;;12.10;100.00
22605;BME280;11469;49.024;8.246;2022-10-30T03:04:51;100716.81;;;12.06;100.00
22605;BME280;11469;49.024;8.246;2022-10-30T03:07:16;100719.63;;;12.06;100.00
22605;BME280;11469;49.024;8.246;2022-10-30T03:09:41;100716.00;;;12.06;100.00
22605;BME280;11469;49.024;8.246;2022-10-30T03:12:07;100709.56;;;12.05;100.00
22605;BME280;11469;49.024;8.246;2022-10-30T03:14:32;100716.34;;;12.04;100.00
22605;BME280;11469;49.024;8.246;2022-10-30T03:16:58;100710.28;;;12.02;100.00
22605;BME280;11469;49.024;8.246;2022-10-30T03:19:23;100711.56;;;12.05;100.00
22605;BME280;11469;49.024;8.246;2022-10-30T03:21:48;100713.09;;;12.02;100.00
22605;BME280;11469;49.024;8.246;2022-10-30T03:24:14;100711.47;;;12.01;100.00
22605;BME280;11469;49.024;8.246;2022-10-30T03:26:40;100709.47;;;12.02;100.00
22605;BME280;11469;49.024;8.246;2022-10-30T03:29:05;100715.53;;;12.04;100.00
22605;BME280;11469;49.024;8.246;2022-10-30T03:31:31;100711.47;;;12.01;100.00
22605;BME280;11469;49.024;8.246;2022-10-30T03:33:57;100717.34;;;11.96;100.00
22605;BME280;11469;49.024;8.246;2022-10-30T03:36:24;100714.81;;;11.91;100.00
22605;BME280;11469;49.024;8.246;2022-10-30T03:38:49;100712.38;;;11.89;100.00
22605;BME280;11469;49.024;8.246;2022-10-30T03:41:15;100717.91;;;11.86;100.00
22605;BME280;11469;49.024;8.246;2022-10-30T03:43:40;100719.09;;;11.85;100.00
22605;BME280;11469;49.024;8.246;2022-10-30T03:46:05;100709.03;;;11.84;100.00
22605;BME280;11469;49.024;8.246;2022-10-30T03:48:31;100715.75;;;11.79;100.00
22605;BME280;11469;49.024;8.246;2022-10-30T03:50:58;100711.69;;;11.77;100.00
22605;BME280;11469;49.024;8.246;2022-10-30T03:53:24;100711.19;;;11.75;100.00
22605;BME280;11469;49.024;8.246;2022-10-30T03:55:57;100712.38;;;11.74;100.00
22605;BME280;11469;49.024;8.246;2022-10-30T03:58:23;100710.66;;;11.69;100.00
22605;BME280;11469;49.024;8.246;2022-10-30T04:00:49;100710.19;;;11.67;100.00
22605;BME280;11469;49.024;8.246;2022-10-30T04:03:14;100715.72;;;11.63;100.00
22605;BME280;11469;49.024;8.246;2022-10-30T04:05:39;100717.72;;;11.63;100.00
22605;BME280;11469;49.024;8.246;2022-10-30T04:08:09;100720.50;;;11.63;100.00
22605;BME280;11469;49.024;8.246;2022-10-30T04:10:35;100720.06;;;11.61;100.00
22605;BME280;11469;49.024;8.246;2022-10-30T04:13:03;100716.44;;;11.60;100.00
22605;BME280;11469;49.024;8.246;2022-10-30T04:15:28;100717.06;;;11.54;100.00
22605;BME280;11469;49.024;8.246;2022-10-30T04:17:54;100713.78;;;11.52;100.00
22605;BME280;11469;49.024;8.246;2022-10-30T04:20:21;100718.50;;;11.48;100.00
22605;BME280;11469;49.024;8.246;2022-10-30T04:22:47;100728.00;;;11.43;100.00
22605;BME280;11469;49.024;8.246;2022-10-30T04:25:12;100724.72;;;11.41;100.00
22605;BME280;11469;49.024;8.246;2022-10-30T04:27:42;100721.94;;;11.41;100.00
22605;BME280;11469;49.024;8.246;2022-10-30T04:30:09;100724.72;;;11.41;100.00
22605;BME280;11469;49.024;8.246;2022-10-30T04:32:35;100726.25;;;11.39;100.00
22605;BME280;11469;49.024;8.246;2022-10-30T04:35:02;100721.81;;;11.38;100.00
22605;BME280;11469;49.024;8.246;2022-10-30T04:37:28;100723.75;;;11.34;100.00
22605;BME280;11469;49.024;8.246;2022-10-30T04:39:54;100710.78;;;11.29;100.00
22605;BME280;11469;49.024;8.246;2022-10-30T04:42:19;100712.69;;;11.25;100.00
22605;BME280;11469;49.024;8.246;2022-10-30T04:44:44;100718.56;;;11.20;100.00
22605;BME280;11469;49.024;8.246;2022-10-30T04:47:10;100721.63;;;11.15;100.00
22605;BME280;11469;49.024;8.246;2022-10-30T04:49:35;100709.56;;;11.14;100.00
22605;BME280;11469;49.024;8.246;2022-10-30T04:52:01;100717.19;;;11.14;100.00
22605;BME280;11469;49.024;8.246;2022-10-30T04:54:26;100709.84;;;11.09;100.00
22605;BME280;11469;49.024;8.246;2022-10-30T04:56:53;100710.19;;;11.08;100.00
22605;BME280;11469;49.024;8.246;2022-10-30T04:59:18;100702.94;;;11.07;100.00
22605;BME280;11469;49.024;8.246;2022-10-30T05:01:43;100708.91;;;11.05;100.00
22605;BME280;11469;49.024;8.246;2022-10-30T05:04:09;100703.66;;;11.04;100.00
22605;BME280;11469;49.024;8.246;2022-10-30T05:06:34;100695.25;;;11.04;100.00
22605;BME280;11469;49.024;8.246;2022-10-30T05:08:59;100703.09;;;10.98;100.00
22605;BME280;11469;49.024;8.246;2022-10-30T05:11:25;100708.34;;;11.00;100.00
22605;BME280;11469;49.024;8.246;2022-10-30T05:13:50;100705.53;;;11.00;100.00
22605;BME280;11469;49.024;8.246;2022-10-30T05:16:16;100705.53;;;11.00;100.00
22605;BME280;11469;49.024;8.246;2022-10-30T05:18:41;100701.13;;;10.98;100.00
22605;BME280;11469;49.024;8.246;2022-10-30T05:21:07;100697.38;;;10.94;100.00
22605;BME280;11469;49.024;8.246;2022-10-30T05:23:32;100703.25;;;10.89;100.00
22605;BME280;11469;49.024;8.246;2022-10-30T05:26:01;100704.72;;;10.83;100.00
22605;BME280;11469;49.024;8.246;2022-10-30T05:28:26;100706.59;;;10.79;100.00
22605;BME280;11469;49.024;8.246;2022-10-30T05:30:52;100709.75;;;10.78;100.00
22605;BME280;11469;49.024;8.246;2022-10-30T05:33:18;100702.84;;;10.75;100.00
22605;BME280;11469;49.024;8.246;2022-10-30T05:35:43;100701.13;;;10.71;100.00
22605;BME280;11469;49.024;8.246;2022-10-30T05:38:10;100713.03;;;10.68;100.00
22605;BME280;11469;49.024;8.246;2022-10-30T05:40:35;100716.66;;;10.68;100.00
22605;BME280;11469;49.024;8.246;2022-10-30T05:43:01;100713.84;;;10.68;100.00
22605;BME280;11469;49.024;8.246;2022-10-30T05:45:26;100717.00;;;10.67;100.00
22605;BME280;11469;49.024;8.246;2022-10-30T05:48:00;100711.31;;;10.63;100.00
22605;BME280;11469;49.024;8.246;2022-10-30T05:50:26;100719.25;;;10.61;100.00
22605;BME280;11469;49.024;8.246;2022-10-30T05:53:03;100717.63;;;10.60;100.00
22605;BME280;11469;49.024;8.246;2022-10-30T05:55:28;100717.16;;;10.58;100.00
22605;BME280;11469;49.024;8.246;2022-10-30T05:57:58;100715.06;;;10.55;100.00
22605;BME280;11469;49.024;8.246;2022-10-30T06:00:25;100713.78;;;10.52;100.00
22605;BME280;11469;49.024;8.246;2022-10-30T06:02:50;100717.28;;;10.49;100.00
22605;BME280;11469;49.024;8.246;2022-10-30T06:05:16;100716.13;;;10.50;100.00
22605;BME280;11469;49.024;8.246;2022-10-30T06:07:41;100721.25;;;10.48;100.00
22605;BME280;11469;49.024;8.246;2022-10-30T06:10:07;100719.63;;;10.47;100.00
22605;BME280;11469;49.024;8.246;2022-10-30T06:12:32;100726.03;;;10.48;100.00
22605;BME280;11469;49.024;8.246;2022-10-30T06:14:57;100734.81;;;10.46;100.00
22605;BME280;11469;49.024;8.246;2022-10-30T06:17:23;100733.97;;;10.46;100.00
22605;BME280;11469;49.024;8.246;2022-10-30T06:19:48;100735.16;;;10.45;100.00
22605;BME280;11469;49.024;8.246;2022-10-30T06:22:14;100731.53;;;10.44;100.00
22605;BME280;11469;49.024;8.246;2022-10-30T06:24:39;100731.06;;;10.42;100.00
22605;BME280;11469;49.024;8.246;2022-10-30T06:27:05;100734.69;;;10.43;100.00
22605;BME280;11469;49.024;8.246;2022-10-30T06:29:30;100730.72;;;10.44;100.00
22605;BME280;11469;49.024;8.246;2022-10-30T06:31:55;100736.31;;;10.44;100.00
22605;BME280;11469;49.024;8.246;2022-10-30T06:34:21;100736.31;;;10.44;100.00
22605;BME280;11469;49.024;8.246;2022-10-30T06:36:46;100744.03;;;10.47;100.00
22605;BME280;11469;49.024;8.246;2022-10-30T06:39:11;100738.66;;;10.42;100.00
22605;BME280;11469;49.024;8.246;2022-10-30T06:41:37;100729.56;;;10.45;100.00
22605;BME280;11469;49.024;8.246;2022-10-30T06:44:02;100741.22;;;10.47;100.00
22605;BME280;11469;49.024;8.246;2022-10-30T06:46:28;100742.84;;;10.48;100.00
22605;BME280;11469;49.024;8.246;2022-10-30T06:48:53;100733.75;;;10.51;100.00
22605;BME280;11469;49.024;8.246;2022-10-30T06:51:19;100736.66;;;10.54;100.00
22605;BME280;11469;49.024;8.246;2022-10-30T06:53:44;100744.00;;;10.59;100.00
22605;BME280;11469;49.024;8.246;2022-10-30T06:56:10;100744.00;;;10.59;100.00
22605;BME280;11469;49.024;8.246;2022-10-30T06:58:35;100749.25;;;10.60;100.00
22605;BME280;11469;49.024;8.246;2022-10-30T07:01:06;100744.59;;;10.64;100.00
22605;BME280;11469;49.024;8.246;2022-10-30T07:03:32;100744.22;;;10.66;100.00
22605;BME280;11469;49.024;8.246;2022-10-30T07:05:58;100735.22;;;10.73;100.00
22605;BME280;11469;49.024;8.246;2022-10-30T07:08:23;100738.13;;;10.76;100.00
22605;BME280;11469;49.024;8.246;2022-10-30T07:10:49;100743.84;;;10.80;100.00
22605;BME280;11469;49.024;8.246;2022-10-30T07:13:14;100737.19;;;10.84;100.00
22605;BME280;11469;49.024;8.246;2022-10-30T07:15:40;100743.69;;;10.88;100.00
22605;BME280;11469;49.024;8.246;2022-10-30T07:18:05;100739.34;;;10.91;100.00
22605;BME280;11469;49.024;8.246;2022-10-30T07:20:33;100745.53;;;10.96;100.00
22605;BME280;11469;49.024;8.246;2022-10-30T07:22:59;100748.06;;;11.02;100.00
22605;BME280;11469;49.024;8.246;2022-10-30T07:25:25;100744.66;;;11.08;100.00
22605;BME280;11469;49.024;8.246;2022-10-30T07:27:52;100751.19;;;11.12;100.00
22605;BME280;11469;49.024;8.246;2022-10-30T07:30:20;100746.50;;;11.16;100.00
22605;BME280;11469;49.024;8.246;2022-10-30T07:32:55;100745.78;;;11.19;100.00
22605;BME280;11469;49.024;8.246;2022-10-30T07:35:21;100745.91;;;11.23;100.00
22605;BME280;11469;49.024;8.246;2022-10-30T07:37:47;100759.31;;;11.29;100.00
22605;BME280;11469;49.024;8.246;2022-10-30T07:40:12;100752.63;;;11.34;100.00
22605;BME280;11469;49.024;8.246;2022-10-30T07:42:37;100757.59;;;11.41;100.00
22605;BME280;11469;49.024;8.246;2022-10-30T07:45:03;100757.88;;;11.51;100.00
22605;BME280;11469;49.024;8.246;2022-10-30T07:47:28;100769.31;;;11.58;100.00
22605;BME280;11469;49.024;8.246;2022-10-30T07:49:54;100769.16;;;11.67;100.00
22605;BME280;11469;49.024;8.246;2022-10-30T07:52:19;100765.03;;;11.77;100.00
22605;BME280;11469;49.024;8.246;2022-10-30T07:54:45;100760.84;;;11.86;100.00
22605;BME280;11469;49.024;8.246;2022-10-30T07:57:10;100769.09;;;11.95;100.00
22605;BME280;11469;49.024;8.246;2022-10-30T07:59:35;100765.28;;;12.03;100.00
22605;BME280;11469;49.024;8.246;2022-10-30T08:02:01;100772.00;;;12.14;100.00
22605;BME280;11469;49.024;8.246;2022-10-30T08:04:26;100775.97;;;12.29;100.00
22605;BME280;11469;49.024;8.246;2022-10-30T08:06:52;100775.31;;;12.36;100.00
22605;BME280;11469;49.024;8.246;2022-10-30T08:09:17;100769.59;;;12.48;100.00
22605;BME280;11469;49.024;8.246;2022-10-30T08:11:43;100769.13;;;12.61;100.00
22605;BME280;11469;49.024;8.246;2022-10-30T08:14:08;100776.97;;;12.72;100.00
22605;BME280;11469;49.024;8.246;2022-10-30T08:16:33;100771.66;;;12.86;100.00
22605;BME280;11469;49.024;8.246;2022-10-30T08:18:59;100770.34;;;12.99;100.00
22605;BME280;11469;49.024;8.246;2022-10-30T08:21:24;100770.94;;;13.08;100.00
22605;BME280;11469;49.024;8.246;2022-10-30T08:23:50;100760.44;;;13.24;100.00
22605;BME280;11469;49.024;8.246;2022-10-30T08:26:16;100770.78;;;13.40;100.00
22605;BME280;11469;49.024;8.246;2022-10-30T08:28:41;100775.47;;;13.51;100.00
22605;BME280;11469;49.024;8.246;2022-10-30T08:31:06;100769.47;;;13.76;100.00
22605;BME280;11469;49.024;8.246;2022-10-30T08:33:32;100775.22;;;13.83;100.00
22605;BME280;11469;49.024;8.246;2022-10-30T08:35:58;100767.78;;;13.94;100.00
22605;BME280;11469;49.024;8.246;2022-10-30T08:38:25;100769.47;;;13.99;100.00
22605;BME280;11469;49.024;8.246;2022-10-30T08:40:51;100766.41;;;14.07;100.00
22605;BME280;11469;49.024;8.246;2022-10-30T08:43:17;100773.44;;;14.17;100.00
22605;BME280;11469;49.024;8.246;2022-10-30T08:45:42;100767.81;;;14.20;100.00
22605;BME280;11469;49.024;8.246;2022-10-30T08:48:13;100759.47;;;14.27;100.00
22605;BME280;11469;49.024;8.246;2022-10-30T08:50:39;100764.84;;;14.36;100.00
22605;BME280;11469;49.024;8.246;2022-10-30T08:53:07;100773.16;;;14.48;100.00
22605;BME280;11469;49.024;8.246;2022-10-30T08:55:33;100772.06;;;14.56;100.00
22605;BME280;11469;49.024;8.246;2022-10-30T08:57:59;100773.06;;;14.71;100.00
22605;BME280;11469;49.024;8.246;2022-10-30T09:00:26;100773.28;;;14.85;100.00
22605;BME280;11469;49.024;8.246;2022-10-30T09:02:52;100771.03;;;14.98;100.00
22605;BME280;11469;49.024;8.246;2022-10-30T09:05:18;100764.28;;;15.06;100.00
22605;BME280;11469;49.024;8.246;2022-10-30T09:07:44;100769.31;;;15.23;100.00
22605;BME280;11469;49.024;8.246;2022-10-30T09:10:10;100779.59;;;15.39;100.00
22605;BME280;11469;49.024;8.246;2022-10-30T09:12:35;100771.72;;;15.55;100.00
22605;BME280;11469;49.024;8.246;2022-10-30T09:15:01;100766.97;;;15.63;100.00
22605;BME280;11469;49.024;8.246;2022-10-30T09:17:26;100762.63;;;15.72;100.00
22605;BME280;11469;49.024;8.246;2022-10-30T09:19:52;100762.72;;;15.79;100.00
22605;BME280;11469;49.024;8.246;2022-10-30T09:22:17;100762.75;;;15.83;100.00
22605;BME280;11469;49.024;8.246;2022-10-30T09:24:43;100766.44;;;15.87;100.00
22605;BME280;11469;49.024;8.246;2022-10-30T09:27:08;100767.28;;;15.91;100.00
22605;BME280;11469;49.024;8.246;2022-10-30T09:29:34;100758.47;;;16.00;100.00
22605;BME280;11469;49.024;8.246;2022-10-30T09:32:01;100763.41;;;16.13;100.00
22605;BME280;11469;49.024;8.246;2022-10-30T09:34:28;100763.06;;;16.18;100.00
22605;BME280;11469;49.024;8.246;2022-10-30T09:36:55;100768.78;;;16.25;100.00
22605;BME280;11469;49.024;8.246;2022-10-30T09:39:20;100763.63;;;16.38;100.00
22605;BME280;11469;49.024;8.246;2022-10-30T09:44:52;100760.50;;;16.50;100.00
22605;BME280;11469;49.024;8.246;2022-10-30T09:53:24;100769.66;;;16.88;100.00
22605;BME280;11469;49.024;8.246;2022-10-30T10:01:47;100772.97;;;17.11;98.05
22605;BME280;11469;49.024;8.246;2022-10-30T10:06:49;100772.59;;;17.13;95.29
22605;BME280;11469;49.024;8.246;2022-10-30T10:09:19;100773.03;;;17.18;94.04
22605;BME280;11469;49.024;8.246;2022-10-30T10:11:48;100780.31;;;17.23;94.58
22605;BME280;11469;49.024;8.246;2022-10-30T10:14:26;100771.09;;;17.40;95.21
22605;BME280;11469;49.024;8.246;2022-10-30T10:16:54;100768.66;;;17.49;96.14
22605;BME280;11469;49.024;8.246;2022-10-30T10:19:25;100763.00;;;17.53;95.63
22605;BME280;11469;49.024;8.246;2022-10-30T10:21:58;100766.28;;;17.58;95.52
22605;BME280;11469;49.024;8.246;2022-10-30T10:24:32;100765.94;;;17.67;93.60
22605;BME280;11469;49.024;8.246;2022-10-30T10:27:15;100768.78;;;17.74;90.92
22605;BME280;11469;49.024;8.246;2022-10-30T10:40:25;100757.47;;;18.20;85.82
22605;BME280;11469;49.024;8.246;2022-10-30T10:48:33;100751.34;;;18.57;84.88
22605;BME280;11469;49.024;8.246;2022-10-30T10:51:06;100748.13;;;18.70;84.79
22605;BME280;11469;49.024;8.246;2022-10-30T10:53:42;100750.13;;;18.76;84.14
22605;BME280;11469;49.024;8.246;2022-10-30T10:56:10;100748.50;;;18.82;83.62
22605;BME280;11469;49.024;8.246;2022-10-30T11:01:13;100742.81;;;18.89;83.86
22605;BME280;11469;49.024;8.246;2022-10-30T11:06:21;100740.31;;;18.95;82.02
22605;BME280;11469;49.024;8.246;2022-10-30T11:08:49;100739.13;;;18.93;81.92
22605;BME280;11469;49.024;8.246;2022-10-30T11:11:16;100741.19;;;18.88;82.64
22605;BME280;11469;49.024;8.246;2022-10-30T11:13:43;100737.56;;;18.84;82.28
22605;BME280;11469;49.024;8.246;2022-10-30T11:16:31;100733.50;;;18.78;82.90
22605;BME280;11469;49.024;8.246;2022-10-30T11:19:03;100744.47;;;18.73;83.43
22605;BME280;11469;49.024;8.246;2022-10-30T11:21:33;100733.91;;;18.73;83.29
22605;BME280;11469;49.024;8.246;2022-10-30T11:23:59;100741.63;;;18.76;83.39
22605;BME280;11469;49.024;8.246;2022-10-30T11:26:32;100729.84;;;18.78;83.88
22605;BME280;11469;49.024;8.246;2022-10-30T11:29:04;100741.63;;;18.76;83.25
22605;BME280;11469;49.024;8.246;2022-10-30T11:31:43;100744.06;;;18.78;83.26
22605;BME280;11469;49.024;8.246;2022-10-30T11:36:51;100732.28;;;18.79;83.83
22605;BME280;11469;49.024;8.246;2022-10-30T11:39:20;100739.56;;;18.84;83.23
22605;BME280;11469;49.024;8.246;2022-10-30T11:41:55;100730.66;;;18.85;83.49
22605;BME280;11469;49.024;8.246;2022-10-30T11:44:24;100731.41;;;18.93;83.18
22605;BME280;11469;49.024;8.246;2022-10-30T11:46:50;100734.22;;;19.00;82.07
22605;BME280;11469;49.024;8.246;2022-10-30T11:49:45;100729.75;;;19.06;81.38
22605;BME280;11469;49.024;8.246;2022-10-30T11:52:10;100729.31;;;19.15;80.47
22605;BME280;11469;49.024;8.246;2022-10-30T11:54:38;100728.44;;;19.25;79.62
22605;BME280;11469;49.024;8.246;2022-10-30T11:57:17;100718.69;;;19.33;78.38
22605;BME280;11469;49.024;8.246;2022-10-30T11:59:44;100723.88;;;19.42;77.55
22605;BME280;11469;49.024;8.246;2022-10-30T12:02:23;100726.28;;;19.50;76.77
22605;BME280;11469;49.024;8.246;2022-10-30T12:04:51;100722.22;;;19.55;75.85
22605;BME280;11469;49.024;8.246;2022-10-30T12:09:48;100720.50;;;19.68;76.35
22605;BME280;11469;49.024;8.246;2022-10-30T12:12:21;100720.47;;;19.75;77.18
22605;BME280;11469;49.024;8.246;2022-10-30T12:14:47;100717.22;;;19.77;75.68
22605;BME280;11469;49.024;8.246;2022-10-30T12:17:14;100711.09;;;19.78;75.66
22605;BME280;11469;49.024;8.246;2022-10-30T12:19:46;100705.81;;;19.80;76.40
22605;BME280;11469;49.024;8.246;2022-10-30T12:22:23;100711.09;;;19.82;76.23
22605;BME280;11469;49.024;8.246;2022-10-30T12:24:49;100694.81;;;19.82;74.88
22605;BME280;11469;49.024;8.246;2022-10-30T12:27:16;100699.28;;;19.83;73.36
22605;BME280;11469;49.024;8.246;2022-10-30T12:29:59;100693.53;;;19.87;73.15
22605;BME280;11469;49.024;8.246;2022-10-30T12:32:36;100692.28;;;19.92;73.83
22605;BME280;11469;49.024;8.246;2022-10-30T12:35:50;100690.69;;;19.91;74.81
22605;BME280;11469;49.024;8.246;2022-10-30T12:37:52;100686.97;;;19.97;74.18
22605;BME280;11469;49.024;8.246;2022-10-30T12:40:30;100686.13;;;20.00;74.22
22605;BME280;11469;49.024;8.246;2022-10-30T12:43:25;100691.38;;;20.05;74.93
22605;BME280;11469;49.024;8.246;2022-10-30T12:45:52;100684.41;;;20.13;74.42
22605;BME280;11469;49.024;8.246;2022-10-30T12:48:34;100685.97;;;20.18;73.39
22605;BME280;11469;49.024;8.246;2022-10-30T12:53:45;100674.56;;;20.21;72.75
22605;BME280;11469;49.024;8.246;2022-10-30T12:56:20;100682.66;;;20.27;73.11
22605;BME280;11469;49.024;8.246;2022-10-30T12:58:58;100670.00;;;20.31;73.04
22605;BME280;11469;49.024;8.246;2022-10-30T13:01:34;100676.06;;;20.33;72.99
22605;BME280;11469;49.024;8.246;2022-10-30T13:06:33;100670.75;;;20.39;70.93
22605;BME280;11469;49.024;8.246;2022-10-30T13:09:16;100671.09;;;20.44;72.16
22605;BME280;11469;49.024;8.246;2022-10-30T13:12:01;100673.88;;;20.51;71.22
22605;BME280;11469;49.024;8.246;2022-10-30T13:14:40;100664.38;;;20.65;68.30
22605;BME280;11469;49.024;8.246;2022-10-30T13:17:11;100663.53;;;20.68;69.38
22605;BME280;11469;49.024;8.246;2022-10-30T13:19:39;100667.53;;;20.74;69.83
22605;BME280;11469;49.024;8.246;2022-10-30T13:22:25;100663.00;;;20.77;69.93
22605;BME280;11469;49.024;8.246;2022-10-30T13:30:09;100666.25;;;20.79;68.31
22605;BME280;11469;49.024;8.246;2022-10-30T13:40:48;100662.66;;;20.71;70.91
22605;BME280;11469;49.024;8.246;2022-10-30T13:43:26;100665.59;;;20.64;70.15
22605;BME280;11469;49.024;8.246;2022-10-30T13:51:40;100664.53;;;20.51;71.25
22605;BME280;11469;49.024;8.246;2022-10-30T13:56:38;100665.34;;;20.51;71.23
22605;BME280;11469;49.024;8.246;2022-10-30T14:02:07;100655.59;;;20.49;71.12
22605;BME280;11469;49.024;8.246;2022-10-30T14:07:37;100662.94;;;20.46;71.63
22605;BME280;11469;49.024;8.246;2022-10-30T14:20:47;100666.16;;;20.48;72.37
22605;BME280;11469;49.024;8.246;2022-10-30T14:26:19;100657.63;;;20.48;72.14
22605;BME280;11469;49.024;8.246;2022-10-30T14:28:49;100660.56;;;20.41;72.92
22605;BME280;11469;49.024;8.246;2022-10-30T14:31:18;100659.31;;;20.42;72.93
22605;BME280;11469;49.024;8.246;2022-10-30T14:33:52;100656.44;;;20.46;72.87
22605;BME280;11469;49.024;8.246;2022-10-30T14:44:48;100658.06;;;20.47;73.62